createdAt,value
2022-09-20T00:01:28.156Z,10.97
2022-09-20T00:03:57.780Z,10.95
2022-09-20T00:06:29.555Z,10.93
2022-09-20T00:08:59.434Z,10.90
2022-09-20T00:11:29.116Z,10.89
2022-09-20T00:13:58.966Z,10.86
2022-09-20T00:16:28.933Z,10.87
2022-09-20T00:18:58.702Z,10.87
2022-09-20T00:21:29.602Z,10.86
2022-09-20T00:23:58.094Z,10.83
2022-09-20T00:26:26.489Z,10.82
2022-09-20T00:28:54.209Z,10.80
2022-09-20T00:31:21.847Z,10.78
2022-09-20T00:34:07.551Z,10.78
2022-09-20T00:36:38.395Z,10.77
2022-09-20T00:39:06.244Z,10.75
2022-09-20T00:41:34.304Z,10.74
2022-09-20T00:44:03.766Z,10.76
2022-09-20T00:50:38.077Z,10.72
2022-09-20T00:53:10.409Z,10.70
2022-09-20T00:55:40.944Z,10.69
2022-09-20T00:58:14.947Z,10.67
2022-09-20T01:01:01.411Z,10.66
2022-09-20T01:03:42.026Z,10.66
2022-09-20T01:06:20.143Z,10.65
2022-09-20T01:09:02.312Z,10.64
2022-09-20T01:11:30.941Z,10.62
2022-09-20T01:14:05.152Z,10.59
2022-09-20T01:16:38.013Z,10.58
2022-09-20T01:19:23.110Z,10.58
2022-09-20T01:21:51.437Z,10.55
2022-09-20T01:24:26.347Z,10.54
2022-09-20T01:27:19.797Z,10.50
2022-09-20T01:30:15.019Z,10.52
2022-09-20T01:32:53.161Z,10.51
2022-09-20T01:35:24.417Z,10.51
2022-09-20T01:38:06.033Z,10.47
2022-09-20T01:40:44.806Z,10.46
2022-09-20T01:43:19.864Z,10.44
2022-09-20T01:45:50.394Z,10.45
2022-09-20T01:48:31.591Z,10.41
2022-09-20T01:51:32.583Z,10.40
2022-09-20T01:54:25.182Z,10.36
2022-09-20T01:57:27.451Z,10.30
2022-09-20T02:00:06.952Z,10.27
2022-09-20T02:03:06.994Z,10.21
2022-09-20T02:05:59.017Z,10.17
2022-09-20T02:08:42.867Z,10.14
2022-09-20T02:11:14.672Z,10.11
2022-09-20T02:14:02.331Z,10.06
2022-09-20T02:16:46.837Z,10.02
2022-09-20T02:19:39.116Z,9.99
2022-09-20T02:22:18.378Z,9.96
2022-09-20T02:24:54.291Z,9.94
2022-09-20T02:27:27.582Z,9.91
2022-09-20T02:30:07.925Z,9.90
2022-09-20T02:33:06.776Z,9.89
2022-09-20T02:35:51.964Z,9.89
2022-09-20T02:38:33.763Z,9.88
2022-09-20T02:41:26.246Z,9.88
2022-09-20T02:44:01.327Z,9.91
2022-09-20T02:46:38.768Z,9.92
2022-09-20T02:49:14.717Z,9.92
2022-09-20T02:51:51.856Z,9.91
2022-09-20T02:54:33.089Z,9.92
2022-09-20T02:57:08.040Z,9.94
2022-09-20T02:59:45.561Z,9.94
2022-09-20T03:02:24.074Z,9.95
2022-09-20T03:05:07.200Z,9.94
2022-09-20T03:07:47.208Z,9.92
2022-09-20T03:10:21.430Z,9.92
2022-09-20T03:13:07.160Z,9.94
2022-09-20T03:15:43.951Z,9.94
2022-09-20T03:18:15.753Z,9.95
2022-09-20T03:20:55.849Z,9.95
2022-09-20T03:23:41.264Z,9.94
2022-09-20T03:26:19.823Z,9.93
2022-09-20T03:29:03.505Z,9.91
2022-09-20T03:31:48.544Z,9.93
2022-09-20T03:34:31.533Z,9.92
2022-09-20T03:37:15.356Z,9.92
2022-09-20T03:40:07.896Z,9.90
2022-09-20T03:42:42.360Z,9.91
2022-09-20T03:45:30.813Z,9.90
2022-09-20T03:48:22.790Z,9.90
2022-09-20T03:51:11.335Z,9.88
2022-09-20T03:53:55.758Z,9.86
2022-09-20T03:56:44.796Z,9.87
2022-09-20T03:59:29.200Z,9.87
2022-09-20T04:02:22.074Z,9.85
2022-09-20T04:04:55.757Z,9.87
2022-09-20T04:07:33.943Z,9.86
2022-09-20T04:10:17.250Z,9.86
2022-09-20T04:12:57.002Z,9.85
2022-09-20T04:15:33.019Z,9.87
2022-09-20T04:18:09.409Z,9.88
2022-09-20T04:20:46.226Z,9.88
2022-09-20T04:23:26.661Z,9.90
2022-09-20T04:25:54.310Z,9.91
2022-09-20T04:28:30.157Z,9.93
2022-09-20T04:31:06.041Z,9.94
2022-09-20T04:33:41.047Z,9.96
2022-09-20T04:36:29.881Z,9.96
2022-09-20T04:39:06.225Z,10.00
2022-09-20T04:42:00.638Z,10.02
2022-09-20T04:44:49.442Z,10.04
2022-09-20T04:48:02.604Z,10.04
2022-09-20T04:50:46.024Z,10.08
2022-09-20T04:54:04.055Z,10.10
2022-09-20T04:56:46.236Z,10.13
2022-09-20T04:59:22.951Z,10.16
2022-09-20T05:02:23.255Z,10.18
2022-09-20T05:05:28.542Z,10.21
2022-09-20T05:08:34.960Z,10.24
2022-09-20T05:11:30.462Z,10.27
2022-09-20T05:14:17.111Z,10.29
2022-09-20T05:17:02.659Z,10.31
2022-09-20T05:19:44.826Z,10.33
2022-09-20T05:22:41.173Z,10.35
2022-09-20T05:25:28.668Z,10.38
2022-09-20T05:28:03.787Z,10.40
2022-09-20T05:30:37.974Z,10.43
2022-09-20T05:33:20.390Z,10.45
2022-09-20T05:36:00.353Z,10.49
2022-09-20T05:38:35.329Z,10.53
2022-09-20T05:41:14.100Z,10.57
2022-09-20T05:44:10.651Z,10.59
2022-09-20T05:46:51.641Z,10.62
2022-09-20T05:49:34.528Z,10.63
2022-09-20T05:52:21.251Z,10.68
2022-09-20T05:55:07.810Z,10.70
2022-09-20T05:57:54.649Z,10.76
2022-09-20T06:00:29.055Z,10.83
2022-09-20T06:03:05.861Z,10.87
2022-09-20T06:05:42.709Z,10.94
2022-09-20T06:08:32.371Z,10.97
2022-09-20T06:11:20.167Z,11.05
2022-09-20T06:14:03.868Z,11.12
2022-09-20T06:16:42.981Z,11.17
2022-09-20T06:19:19.790Z,11.25
2022-09-20T06:21:53.485Z,11.37
2022-09-20T06:24:33.972Z,11.55
2022-09-20T06:27:09.833Z,11.71
2022-09-20T06:29:41.706Z,11.84
2022-09-20T06:32:09.494Z,11.98
2022-09-20T06:34:37.749Z,12.07
2022-09-20T06:37:37.311Z,12.14
2022-09-20T06:40:39.242Z,12.29
2022-09-20T06:43:07.168Z,12.46
2022-09-20T06:45:35.381Z,12.62
2022-09-20T06:48:03.811Z,12.79
2022-09-20T06:50:32.703Z,13.22
2022-09-20T06:53:00.123Z,13.85
2022-09-20T06:55:33.052Z,14.48
2022-09-20T06:58:00.814Z,14.69
2022-09-20T07:00:28.364Z,14.66
2022-09-20T07:02:56.745Z,14.61
2022-09-20T07:05:24.384Z,14.63
2022-09-20T07:07:57.077Z,15.16
2022-09-20T07:10:24.745Z,15.78
2022-09-20T07:12:56.799Z,16.33
2022-09-20T07:15:24.773Z,16.69
2022-09-20T07:17:52.969Z,17.04
2022-09-20T07:20:21.545Z,17.44
2022-09-20T07:22:49.532Z,17.88
2022-09-20T07:25:18.654Z,18.29
2022-09-20T07:27:47.504Z,18.50
2022-09-20T07:30:18.268Z,18.49
2022-09-20T07:32:46.344Z,18.39
2022-09-20T07:35:16.869Z,18.16
2022-09-20T07:37:44.864Z,17.96
2022-09-20T07:40:12.901Z,17.78
2022-09-20T07:42:40.494Z,17.78
2022-09-20T07:45:08.989Z,18.11
2022-09-20T07:47:41.200Z,18.46
2022-09-20T07:50:11.654Z,18.74
2022-09-20T07:52:39.391Z,18.89
2022-09-20T07:55:07.986Z,18.78
2022-09-20T07:57:37.497Z,18.31
2022-09-20T08:00:09.044Z,17.75
2022-09-20T08:02:45.219Z,17.26
2022-09-20T08:05:13.274Z,16.86
2022-09-20T08:07:40.840Z,16.62
2022-09-20T08:10:09.303Z,16.30
2022-09-20T08:15:26.877Z,15.97
2022-09-20T08:17:56.802Z,15.86
2022-09-20T08:20:26.892Z,15.78
2022-09-20T08:23:19.286Z,15.73
2022-09-20T08:25:43.624Z,15.64
2022-09-20T08:28:13.959Z,15.60
2022-09-20T08:30:42.579Z,15.59
2022-09-20T08:33:13.255Z,15.52
2022-09-20T08:35:40.805Z,15.47
2022-09-20T08:41:01.698Z,15.48
2022-09-20T08:43:34.922Z,15.49
2022-09-20T08:46:06.119Z,15.53
2022-09-20T08:48:35.075Z,15.58
2022-09-20T08:51:05.656Z,15.64
2022-09-20T08:53:34.361Z,15.75
2022-09-20T08:56:04.323Z,15.86
2022-09-20T08:58:31.916Z,16.00
2022-09-20T09:01:00.103Z,16.15
2022-09-20T09:03:28.345Z,16.31
2022-09-20T09:05:58.133Z,16.48
2022-09-20T09:08:28.530Z,16.80
2022-09-20T09:10:58.793Z,17.69
2022-09-20T09:13:32.405Z,18.98
2022-09-20T09:16:07.098Z,20.29
2022-09-20T09:21:37.784Z,21.80
2022-09-20T09:24:10.147Z,22.37
2022-09-20T09:26:39.940Z,22.71
2022-09-20T09:29:10.396Z,23.25
2022-09-20T09:31:39.750Z,23.66
2022-09-20T09:34:24.302Z,24.08
2022-09-20T09:36:59.245Z,24.37
2022-09-20T09:39:29.628Z,24.73
2022-09-20T09:42:00.861Z,24.76
2022-09-20T09:44:30.128Z,24.43
2022-09-20T09:46:58.835Z,24.58
2022-09-20T09:49:27.825Z,24.38
2022-09-20T09:52:12.948Z,23.47
2022-09-20T09:54:42.162Z,22.94
2022-09-20T09:57:22.028Z,23.35
2022-09-20T10:00:09.356Z,23.86
2022-09-20T10:03:14.063Z,23.97
2022-09-20T10:05:48.312Z,24.29
2022-09-20T10:08:29.815Z,24.45
2022-09-20T10:11:07.599Z,23.93
2022-09-20T10:13:43.610Z,23.85
2022-09-20T10:16:20.981Z,24.19
2022-09-20T10:18:56.139Z,24.37
2022-09-20T10:21:41.954Z,24.56
2022-09-20T10:24:19.699Z,24.71
2022-09-20T10:27:00.391Z,24.39
2022-09-20T10:29:41.826Z,24.15
2022-09-20T10:32:28.912Z,23.93
2022-09-20T10:35:14.140Z,23.92
2022-09-20T10:37:54.917Z,24.29
2022-09-20T10:40:51.395Z,24.17
2022-09-20T10:43:31.044Z,23.84
2022-09-20T10:46:30.930Z,23.46
2022-09-20T10:49:04.601Z,22.90
2022-09-20T10:51:44.465Z,22.39
2022-09-20T10:54:27.050Z,21.86
2022-09-20T10:57:10.439Z,21.34
2022-09-20T10:59:48.362Z,20.89
2022-09-20T11:02:36.800Z,20.45
2022-09-20T11:05:21.368Z,20.02
2022-09-20T11:07:59.976Z,19.62
2022-09-20T11:10:36.164Z,19.37
2022-09-20T11:13:09.814Z,19.11
2022-09-20T11:15:44.094Z,18.81
2022-09-20T11:18:23.547Z,18.48
2022-09-20T11:20:58.474Z,18.14
2022-09-20T11:23:34.002Z,17.90
2022-09-20T11:26:08.419Z,17.74
2022-09-20T11:28:43.229Z,17.46
2022-09-20T11:31:18.860Z,16.88
2022-09-20T11:33:52.167Z,16.39
2022-09-20T11:36:24.722Z,16.01
2022-09-20T11:38:57.283Z,15.72
2022-09-20T11:41:28.332Z,15.52
2022-09-20T11:44:02.486Z,15.30
2022-09-20T11:46:34.429Z,15.20
2022-09-20T11:49:05.183Z,15.08
2022-09-20T11:51:54.859Z,14.99
2022-09-20T11:54:49.594Z,14.91
2022-09-20T11:57:17.729Z,14.88
2022-09-20T11:59:54.283Z,14.91
2022-09-20T12:02:27.143Z,14.92
2022-09-20T12:04:59.049Z,14.97
2022-09-20T12:07:29.880Z,14.95
2022-09-20T12:10:00.807Z,14.93
2022-09-20T12:12:37.432Z,14.98
2022-09-20T12:15:22.770Z,15.00
2022-09-20T12:18:16.140Z,15.10
2022-09-20T12:21:01.904Z,15.34
2022-09-20T12:23:59.245Z,15.67
2022-09-20T12:26:45.758Z,16.09
2022-09-20T12:30:16.869Z,16.54
2022-09-20T12:32:55.110Z,16.98
2022-09-20T12:35:56.090Z,17.37
2022-09-20T12:38:31.252Z,17.67
2022-09-20T12:41:00.677Z,17.95
2022-09-20T12:43:31.637Z,18.19
2022-09-20T12:46:04.546Z,18.35
2022-09-20T12:48:38.946Z,18.58
2022-09-20T12:51:37.755Z,18.82
2022-09-20T12:54:08.461Z,19.09
2022-09-20T12:56:38.806Z,19.26
2022-09-20T12:59:20.969Z,19.36
2022-09-20T13:01:48.740Z,19.45
2022-09-20T13:04:53.536Z,19.50
2022-09-20T13:07:38.779Z,19.60
2022-09-20T13:10:21.813Z,19.68
2022-09-20T13:12:54.372Z,19.57
2022-09-20T13:15:23.429Z,19.42
2022-09-20T13:17:54.173Z,19.27
2022-09-20T13:20:25.589Z,19.18
2022-09-20T13:22:58.304Z,19.07
2022-09-20T13:25:28.532Z,19.08
2022-09-20T13:28:08.225Z,19.01
2022-09-20T13:30:35.926Z,18.90
2022-09-20T13:33:24.690Z,18.91
2022-09-20T13:35:57.136Z,18.84
2022-09-20T13:38:29.930Z,18.60
2022-09-20T13:41:04.482Z,18.42
2022-09-20T13:43:34.347Z,18.36
2022-09-20T13:46:09.692Z,18.20
2022-09-20T13:48:37.599Z,18.01
2022-09-20T13:51:18.069Z,17.91
2022-09-20T13:53:46.753Z,17.85
2022-09-20T13:56:21.298Z,17.81
2022-09-20T13:58:49.759Z,17.82
2022-09-20T14:01:30.289Z,17.80
2022-09-20T14:04:03.692Z,17.85
2022-09-20T14:06:33.313Z,17.80
2022-09-20T14:09:08.338Z,17.71
2022-09-20T14:11:38.476Z,17.54
2022-09-20T14:14:08.971Z,17.43
2022-09-20T14:16:46.721Z,17.27
2022-09-20T14:19:17.300Z,17.21
2022-09-20T14:21:48.188Z,17.23
2022-09-20T14:24:31.863Z,17.24
2022-09-20T14:27:06.014Z,17.19
2022-09-20T14:29:42.178Z,17.12
2022-09-20T14:32:34.984Z,17.16
2022-09-20T14:35:07.257Z,17.19
2022-09-20T14:37:42.015Z,17.16
2022-09-20T14:40:20.969Z,17.07
2022-09-20T14:42:51.040Z,17.05
2022-09-20T14:45:24.086Z,17.05
2022-09-20T14:47:58.868Z,17.03
2022-09-20T14:50:29.549Z,16.98
2022-09-20T14:53:04.822Z,16.89
2022-09-20T14:55:37.204Z,16.86
2022-09-20T14:58:09.286Z,16.83
2022-09-20T15:00:53.399Z,16.75
2022-09-20T15:03:28.170Z,16.72
2022-09-20T15:05:56.449Z,16.70
2022-09-20T15:08:26.918Z,16.67
2022-09-20T15:10:54.882Z,16.60
2022-09-20T15:13:22.531Z,16.54
2022-09-20T15:15:52.224Z,16.48
2022-09-20T15:18:22.584Z,16.46
2022-09-20T15:20:51.025Z,16.47
2022-09-20T15:23:19.356Z,16.45
2022-09-20T15:25:51.491Z,16.38
2022-09-20T15:28:19.742Z,16.35
2022-09-20T15:30:51.805Z,16.31
2022-09-20T15:33:20.367Z,16.29
2022-09-20T15:35:49.212Z,16.25
2022-09-20T15:38:19.470Z,16.24
2022-09-20T15:40:50.026Z,16.16
2022-09-20T15:43:21.834Z,16.10
2022-09-20T15:45:51.498Z,16.09
2022-09-20T15:48:20.871Z,16.09
2022-09-20T15:51:01.837Z,16.06
2022-09-20T15:53:31.913Z,15.98
2022-09-20T15:56:02.422Z,15.88
2022-09-20T15:58:35.413Z,15.73
2022-09-20T16:01:06.407Z,15.66
2022-09-20T16:03:34.852Z,15.59
2022-09-20T16:06:04.764Z,15.54
2022-09-20T16:08:33.658Z,15.50
2022-09-20T16:11:03.116Z,15.44
2022-09-20T16:13:30.828Z,15.38
2022-09-20T16:15:59.833Z,15.34
2022-09-20T16:18:45.929Z,15.24
2022-09-20T16:21:16.214Z,15.18
2022-09-20T16:23:48.392Z,15.10
2022-09-20T16:26:18.507Z,15.05
2022-09-20T16:28:47.695Z,15.01
2022-09-20T16:31:39.935Z,14.97
2022-09-20T16:34:13.443Z,14.91
2022-09-20T16:36:43.256Z,14.85
2022-09-20T16:39:12.106Z,14.79
2022-09-20T16:41:41.134Z,14.73
2022-09-20T16:44:09.510Z,14.64
2022-09-20T16:46:38.254Z,14.60
2022-09-20T16:49:09.203Z,14.54
2022-09-20T16:51:38.923Z,14.48
2022-09-20T16:54:12.150Z,14.42
2022-09-20T16:56:43.439Z,14.34
2022-09-20T16:59:11.946Z,14.29
2022-09-20T17:01:40.713Z,14.24
2022-09-20T17:04:09.412Z,14.20
2022-09-20T17:06:39.022Z,14.14
2022-09-20T17:09:08.060Z,14.09
2022-09-20T17:11:37.819Z,14.05
2022-09-20T17:14:07.978Z,13.99
2022-09-20T17:16:37.510Z,13.96
2022-09-20T17:19:08.688Z,13.90
2022-09-20T17:21:38.729Z,13.86
2022-09-20T17:24:08.071Z,13.81
2022-09-20T17:26:38.351Z,13.76
2022-09-20T17:29:09.405Z,13.72
2022-09-20T17:31:38.106Z,13.68
2022-09-20T17:34:09.470Z,13.64
2022-09-20T17:36:39.731Z,13.59
2022-09-20T17:39:10.819Z,13.53
2022-09-20T17:41:39.033Z,13.47
2022-09-20T17:44:09.937Z,13.42
2022-09-20T17:46:39.394Z,13.37
2022-09-20T17:49:09.217Z,13.32
2022-09-20T17:51:38.658Z,13.28
2022-09-20T17:54:07.604Z,13.22
2022-09-20T17:56:35.840Z,13.20
2022-09-20T17:59:05.767Z,13.17
2022-09-20T18:01:36.146Z,13.13
2022-09-20T18:04:05.579Z,13.09
2022-09-20T18:06:36.118Z,13.07
2022-09-20T18:09:06.127Z,13.06
2022-09-20T18:11:35.782Z,13.04
2022-09-20T18:14:04.934Z,13.00
2022-09-20T18:16:35.086Z,12.92
2022-09-20T18:19:03.252Z,12.88
2022-09-20T18:21:32.111Z,12.84
2022-09-20T18:24:01.064Z,12.79
2022-09-20T18:26:32.260Z,12.74
2022-09-20T18:29:01.963Z,12.71
2022-09-20T18:31:32.370Z,12.70
2022-09-20T18:34:01.840Z,12.66
2022-09-20T18:36:39.602Z,12.63
2022-09-20T18:39:07.903Z,12.58
2022-09-20T18:41:37.157Z,12.53
2022-09-20T18:44:07.536Z,12.48
2022-09-20T18:46:38.764Z,12.45
2022-09-20T18:49:09.620Z,12.44
2022-09-20T18:51:40.185Z,12.43
2022-09-20T18:54:10.229Z,12.43
2022-09-20T18:56:39.594Z,12.43
2022-09-20T18:59:08.886Z,12.41
2022-09-20T19:02:00.600Z,12.41
2022-09-20T19:04:40.756Z,12.39
2022-09-20T19:07:16.914Z,12.40
2022-09-20T19:09:50.594Z,12.39
2022-09-20T19:12:24.018Z,12.37
2022-09-20T19:15:19.592Z,12.34
2022-09-20T19:18:02.607Z,12.33
2022-09-20T19:20:39.723Z,12.31
2022-09-20T19:23:30.204Z,12.28
2022-09-20T19:26:06.560Z,12.26
2022-09-20T19:28:34.961Z,12.23
2022-09-20T19:31:03.485Z,12.20
2022-09-20T19:33:31.637Z,12.18
2022-09-20T19:36:03.712Z,12.13
2022-09-20T19:38:42.078Z,12.11
2022-09-20T19:41:23.078Z,12.09
2022-09-20T19:44:04.334Z,12.05
2022-09-20T19:46:46.834Z,12.02
2022-09-20T19:49:16.220Z,12.00
2022-09-20T19:51:45.997Z,11.96
2022-09-20T19:54:15.818Z,11.95
2022-09-20T19:56:52.915Z,11.93
2022-09-20T19:59:21.798Z,11.92
2022-09-20T20:01:49.928Z,11.90
2022-09-20T20:04:18.214Z,11.89
2022-09-20T20:06:58.941Z,11.87
2022-09-20T20:09:37.308Z,11.87
2022-09-20T20:12:14.560Z,11.84
2022-09-20T20:14:55.899Z,11.81
2022-09-20T20:17:36.940Z,11.78
2022-09-20T20:20:16.372Z,11.75
2022-09-20T20:23:05.121Z,11.72
2022-09-20T20:25:42.159Z,11.71
2022-09-20T20:28:10.322Z,11.69
2022-09-20T20:30:38.072Z,11.66
2022-09-20T20:33:06.570Z,11.64
2022-09-20T20:35:34.293Z,11.60
2022-09-20T20:38:06.452Z,11.57
2022-09-20T20:40:33.953Z,11.56
2022-09-20T20:43:02.174Z,11.55
2022-09-20T20:45:30.369Z,11.51
2022-09-20T20:47:58.662Z,11.48
2022-09-20T20:50:27.005Z,11.46
2022-09-20T20:52:56.253Z,11.43
2022-09-20T20:55:26.659Z,11.40
2022-09-20T20:57:58.261Z,11.38
2022-09-20T21:00:26.438Z,11.35
2022-09-20T21:02:58.926Z,11.34
2022-09-20T21:05:26.892Z,11.33
2022-09-20T21:07:54.871Z,11.30
2022-09-20T21:10:23.747Z,11.29
2022-09-20T21:12:55.381Z,11.27
2022-09-20T21:15:23.404Z,11.25
2022-09-20T21:17:52.349Z,11.22
2022-09-20T21:20:21.505Z,11.20
2022-09-20T21:22:50.121Z,11.18
2022-09-20T21:25:19.995Z,11.17
2022-09-20T21:27:47.986Z,11.15
2022-09-20T21:30:17.197Z,11.12
2022-09-20T21:32:44.859Z,11.09
2022-09-20T21:35:12.632Z,11.06
2022-09-20T21:37:41.317Z,11.04
2022-09-20T21:40:10.647Z,11.01
2022-09-20T21:42:38.254Z,11.01
2022-09-20T21:45:10.317Z,10.98
2022-09-20T21:47:40.200Z,10.94
2022-09-20T21:50:09.748Z,10.92
2022-09-20T21:52:37.560Z,10.91
2022-09-20T21:55:06.939Z,10.89
2022-09-20T21:57:35.097Z,10.87
2022-09-20T22:00:03.012Z,10.84
2022-09-20T22:02:41.441Z,10.81
2022-09-20T22:05:09.249Z,10.78
2022-09-20T22:07:36.767Z,10.77
2022-09-20T22:10:04.881Z,10.77
2022-09-20T22:12:32.367Z,10.76
2022-09-20T22:14:59.867Z,10.74
2022-09-20T22:17:29.534Z,10.70
2022-09-20T22:19:59.447Z,10.72
2022-09-20T22:22:28.501Z,10.70
2022-09-20T22:24:56.059Z,10.69
2022-09-20T22:27:23.622Z,10.68
2022-09-20T22:29:51.436Z,10.66
2022-09-20T22:32:19.254Z,10.65
2022-09-20T22:34:46.750Z,10.64
2022-09-20T22:37:17.470Z,10.62
2022-09-20T22:39:46.591Z,10.60
2022-09-20T22:42:14.136Z,10.60
2022-09-20T22:44:41.601Z,10.58
2022-09-20T22:47:09.130Z,10.57
2022-09-20T22:49:36.622Z,10.56
2022-09-20T22:52:04.211Z,10.54
2022-09-20T22:54:35.475Z,10.52
2022-09-20T22:57:03.014Z,10.50
2022-09-20T22:59:30.881Z,10.48
2022-09-20T23:01:59.007Z,10.46
2022-09-20T23:04:26.532Z,10.42
2022-09-20T23:06:55.512Z,10.40
2022-09-20T23:09:24.423Z,10.38
2022-09-20T23:11:53.497Z,10.36
2022-09-20T23:14:23.146Z,10.34
2022-09-20T23:16:50.904Z,10.30
2022-09-20T23:19:18.497Z,10.30
2022-09-20T23:21:46.189Z,10.28
2022-09-20T23:24:15.594Z,10.26
2022-09-20T23:26:44.279Z,10.24
2022-09-20T23:29:15.679Z,10.22
2022-09-20T23:31:46.636Z,10.19
2022-09-20T23:34:14.727Z,10.17
2022-09-20T23:36:43.014Z,10.16
2022-09-20T23:39:11.943Z,10.15
2022-09-20T23:41:41.175Z,10.12
2022-09-20T23:44:09.871Z,10.12
2022-09-20T23:46:39.658Z,10.10
2022-09-20T23:49:09.266Z,10.09
2022-09-20T23:51:37.793Z,10.07
2022-09-20T23:54:05.834Z,10.06
2022-09-20T23:56:33.715Z,10.06
2022-09-20T23:59:01.194Z,10.05
